createdAt,value
2023-01-19T00:01:24.430Z,100.00
2023-01-19T00:03:52.403Z,100.00
2023-01-19T00:06:20.377Z,100.00
2023-01-19T00:08:51.321Z,100.00
2023-01-19T00:11:19.424Z,100.00
2023-01-19T00:13:53.755Z,100.00
2023-01-19T00:16:23.227Z,100.00
2023-01-19T00:18:51.977Z,100.00
2023-01-19T00:21:20.037Z,100.00
2023-01-19T00:23:51.187Z,100.00
2023-01-19T00:26:19.361Z,100.00
2023-01-19T00:28:47.262Z,100.00
2023-01-19T00:31:15.216Z,100.00
2023-01-19T00:33:43.175Z,100.00
2023-01-19T00:36:11.697Z,100.00
2023-01-19T00:38:40.105Z,100.00
2023-01-19T00:41:10.206Z,100.00
2023-01-19T00:43:37.175Z,100.00
2023-01-19T00:46:05.133Z,100.00
2023-01-19T00:48:33.118Z,100.00
2023-01-19T00:51:01.197Z,100.00
2023-01-19T00:53:32.517Z,100.00
2023-01-19T00:56:00.624Z,100.00
2023-01-19T00:58:30.047Z,100.00
2023-01-19T01:01:03.606Z,100.00
2023-01-19T01:03:31.836Z,100.00
2023-01-19T01:05:59.870Z,100.00
2023-01-19T01:08:27.805Z,100.00
2023-01-19T01:10:55.772Z,100.00
2023-01-19T01:13:26.396Z,100.00
2023-01-19T01:15:57.099Z,100.00
2023-01-19T01:18:25.371Z,100.00
2023-01-19T01:20:55.347Z,100.00
2023-01-19T01:23:24.237Z,100.00
2023-01-19T01:25:52.212Z,100.00
2023-01-19T01:28:20.150Z,100.00
2023-01-19T01:30:48.034Z,100.00
2023-01-19T01:33:41.012Z,100.00
2023-01-19T01:36:05.719Z,100.00
2023-01-19T01:38:33.680Z,100.00
2023-01-19T01:41:01.621Z,100.00
2023-01-19T01:43:42.900Z,100.00
2023-01-19T01:46:10.896Z,100.00
2023-01-19T01:48:40.236Z,100.00
2023-01-19T01:51:27.340Z,100.00
2023-01-19T01:54:03.074Z,100.00
2023-01-19T01:56:34.169Z,100.00
2023-01-19T01:59:02.440Z,100.00
2023-01-19T02:01:46.861Z,100.00
2023-01-19T02:04:16.249Z,100.00
2023-01-19T02:07:01.537Z,100.00
2023-01-19T02:09:46.945Z,100.00
2023-01-19T02:12:32.319Z,100.00
2023-01-19T02:15:00.276Z,100.00
2023-01-19T02:17:28.185Z,100.00
2023-01-19T02:19:58.151Z,100.00
2023-01-19T02:22:27.480Z,100.00
2023-01-19T02:24:56.839Z,100.00
2023-01-19T02:27:24.806Z,100.00
2023-01-19T02:29:53.572Z,100.00
2023-01-19T02:32:21.551Z,100.00
2023-01-19T02:34:49.528Z,100.00
2023-01-19T02:37:17.477Z,100.00
2023-01-19T02:39:46.733Z,100.00
2023-01-19T02:42:18.432Z,100.00
2023-01-19T02:44:48.267Z,100.00
2023-01-19T02:47:16.255Z,100.00
2023-01-19T02:49:44.196Z,100.00
2023-01-19T02:52:16.040Z,100.00
2023-01-19T02:54:49.384Z,100.00
2023-01-19T02:57:36.705Z,100.00
2023-01-19T03:00:09.894Z,100.00
2023-01-19T03:02:44.949Z,100.00
2023-01-19T03:05:21.959Z,100.00
2023-01-19T03:07:54.217Z,100.00
2023-01-19T03:10:24.955Z,100.00
2023-01-19T03:12:56.150Z,100.00
2023-01-19T03:15:27.532Z,100.00
2023-01-19T03:17:55.494Z,100.00
2023-01-19T03:20:25.624Z,100.00
2023-01-19T03:22:55.907Z,100.00
2023-01-19T03:25:23.951Z,100.00
2023-01-19T03:27:52.303Z,100.00
2023-01-19T03:30:23.242Z,100.00
2023-01-19T03:32:52.765Z,100.00
2023-01-19T03:35:22.995Z,100.00
2023-01-19T03:37:53.050Z,100.00
2023-01-19T03:40:21.110Z,100.00
2023-01-19T03:42:49.090Z,100.00
2023-01-19T03:45:17.211Z,100.00
2023-01-19T03:47:46.503Z,100.00
2023-01-19T03:50:15.941Z,100.00
2023-01-19T03:52:43.910Z,100.00
2023-01-19T03:55:12.649Z,100.00
2023-01-19T03:57:40.775Z,100.00
2023-01-19T04:00:10.047Z,100.00
2023-01-19T04:02:38.062Z,100.00
2023-01-19T04:05:08.305Z,100.00
2023-01-19T04:07:36.293Z,100.00
2023-01-19T04:10:04.610Z,100.00
2023-01-19T04:12:32.556Z,100.00
2023-01-19T04:15:00.543Z,100.00
2023-01-19T04:17:28.535Z,100.00
2023-01-19T04:19:56.504Z,100.00
2023-01-19T04:22:25.880Z,100.00
2023-01-19T04:24:53.801Z,100.00
2023-01-19T04:27:21.833Z,100.00
2023-01-19T04:29:49.776Z,100.00
2023-01-19T04:32:17.744Z,100.00
2023-01-19T04:34:45.739Z,100.00
2023-01-19T04:37:14.099Z,100.00
2023-01-19T04:39:43.483Z,100.00
2023-01-19T04:42:11.395Z,100.00
2023-01-19T04:44:39.358Z,100.00
2023-01-19T04:47:07.319Z,100.00
2023-01-19T04:49:37.634Z,100.00
2023-01-19T04:52:06.211Z,100.00
2023-01-19T04:54:34.234Z,100.00
2023-01-19T04:57:03.593Z,100.00
2023-01-19T04:59:31.548Z,100.00
2023-01-19T05:01:59.543Z,100.00
2023-01-19T05:04:27.760Z,100.00
2023-01-19T05:06:56.067Z,100.00
2023-01-19T05:09:24.365Z,100.00
2023-01-19T05:11:52.273Z,100.00
2023-01-19T05:14:21.773Z,100.00
2023-01-19T05:16:49.735Z,100.00
2023-01-19T05:19:17.703Z,100.00
2023-01-19T05:21:45.639Z,100.00
2023-01-19T05:24:13.738Z,100.00
2023-01-19T05:26:41.701Z,100.00
2023-01-19T05:29:10.305Z,100.00
2023-01-19T05:31:39.713Z,100.00
2023-01-19T05:34:07.691Z,100.00
2023-01-19T05:36:35.651Z,100.00
2023-01-19T05:39:03.548Z,100.00
2023-01-19T05:41:31.540Z,100.00
2023-01-19T05:43:59.557Z,100.00
2023-01-19T05:46:27.584Z,100.00
2023-01-19T05:48:56.907Z,100.00
2023-01-19T05:51:25.571Z,100.00
2023-01-19T05:53:53.534Z,100.00
2023-01-19T05:56:21.537Z,100.00
2023-01-19T05:58:49.506Z,100.00
2023-01-19T06:01:17.546Z,100.00
2023-01-19T06:03:45.568Z,100.00
2023-01-19T06:06:15.394Z,100.00
2023-01-19T06:08:43.413Z,100.00
2023-01-19T06:11:11.377Z,100.00
2023-01-19T06:13:41.994Z,100.00
2023-01-19T06:16:10.662Z,100.00
2023-01-19T06:18:38.676Z,100.00
2023-01-19T06:21:07.437Z,100.00
2023-01-19T06:23:36.904Z,100.00
2023-01-19T06:26:04.947Z,100.00
2023-01-19T06:28:32.933Z,100.00
2023-01-19T06:31:01.162Z,100.00
2023-01-19T06:33:29.195Z,100.00
2023-01-19T06:35:57.172Z,100.00
2023-01-19T06:38:25.329Z,100.00
2023-01-19T06:40:55.343Z,100.00
2023-01-19T06:43:23.316Z,100.00
2023-01-19T06:45:51.317Z,100.00
2023-01-19T06:48:19.339Z,100.00
2023-01-19T06:50:47.453Z,100.00
2023-01-19T06:53:16.711Z,100.00
2023-01-19T06:55:44.810Z,100.00
2023-01-19T06:58:14.317Z,100.00
2023-01-19T07:00:43.044Z,100.00
2023-01-19T07:03:12.599Z,99.61
2023-01-19T07:05:40.596Z,96.93
2023-01-19T07:08:08.634Z,96.28
2023-01-19T07:11:25.949Z,94.84
2023-01-19T07:13:26.717Z,95.18
2023-01-19T07:15:54.683Z,94.77
2023-01-19T07:18:22.647Z,92.94
2023-01-19T07:20:50.577Z,90.55
2023-01-19T07:23:18.515Z,90.86
2023-01-19T07:25:46.838Z,88.67
2023-01-19T07:28:16.035Z,89.61
2023-01-19T07:30:46.354Z,87.54
2023-01-19T07:33:14.393Z,87.06
2023-01-19T07:35:46.883Z,86.52
2023-01-19T07:38:14.849Z,85.80
2023-01-19T07:40:42.936Z,84.01
2023-01-19T07:43:10.946Z,82.91
2023-01-19T07:45:39.072Z,83.14
2023-01-19T07:48:08.631Z,82.93
2023-01-19T07:50:36.554Z,82.37
2023-01-19T07:53:07.696Z,82.70
2023-01-19T07:55:35.684Z,81.63
2023-01-19T07:58:06.692Z,79.85
2023-01-19T08:00:35.361Z,78.60
2023-01-19T08:03:03.997Z,77.83
2023-01-19T08:05:33.649Z,77.73
2023-01-19T08:08:01.622Z,77.80
2023-01-19T08:10:29.699Z,76.37
2023-01-19T08:12:58.328Z,77.42
2023-01-19T08:15:26.699Z,75.07
2023-01-19T08:17:58.691Z,74.34
2023-01-19T08:20:27.200Z,75.26
2023-01-19T08:23:00.203Z,72.51
2023-01-19T08:25:28.777Z,71.97
2023-01-19T08:27:57.244Z,71.51
2023-01-19T08:30:26.940Z,71.43
2023-01-19T08:32:58.151Z,69.47
2023-01-19T08:35:26.413Z,68.81
2023-01-19T08:37:54.408Z,68.21
2023-01-19T08:40:23.772Z,66.24
2023-01-19T08:42:51.737Z,66.61
2023-01-19T08:45:19.728Z,64.81
2023-01-19T08:47:47.761Z,64.19
2023-01-19T08:50:15.782Z,63.67
2023-01-19T08:52:43.759Z,63.41
2023-01-19T08:55:12.342Z,61.20
2023-01-19T08:57:42.788Z,60.02
2023-01-19T09:00:11.771Z,58.81
2023-01-19T09:02:39.810Z,59.00
2023-01-19T09:05:08.783Z,58.88
2023-01-19T09:07:37.012Z,57.20
2023-01-19T09:10:05.208Z,57.35
2023-01-19T09:12:33.206Z,56.85
2023-01-19T09:15:02.570Z,55.61
2023-01-19T09:17:30.581Z,54.40
2023-01-19T09:19:58.505Z,51.66
2023-01-19T09:22:26.452Z,51.70
2023-01-19T09:24:54.489Z,50.40
2023-01-19T09:27:22.427Z,50.29
2023-01-19T09:29:52.672Z,48.08
2023-01-19T09:32:22.977Z,48.52
2023-01-19T09:34:51.181Z,48.54
2023-01-19T09:37:19.145Z,49.62
2023-01-19T09:39:47.204Z,49.41
2023-01-19T09:42:18.380Z,49.34
2023-01-19T09:44:46.315Z,49.09
2023-01-19T09:47:15.490Z,47.68
2023-01-19T09:49:45.913Z,46.94
2023-01-19T09:52:13.910Z,46.17
2023-01-19T09:54:44.454Z,45.59
2023-01-19T09:57:12.450Z,45.32
2023-01-19T09:59:40.423Z,45.87
2023-01-19T10:02:27.642Z,44.80
2023-01-19T10:05:00.507Z,44.05
2023-01-19T10:07:35.233Z,45.33
2023-01-19T10:10:11.106Z,45.54
2023-01-19T10:12:46.236Z,45.40
2023-01-19T10:15:18.943Z,45.13
2023-01-19T10:17:52.349Z,44.24
2023-01-19T10:20:27.801Z,44.49
2023-01-19T10:22:55.769Z,44.00
2023-01-19T10:25:25.063Z,43.04
2023-01-19T10:27:53.274Z,43.85
2023-01-19T10:30:23.362Z,43.50
2023-01-19T10:32:51.619Z,42.82
2023-01-19T10:35:25.422Z,43.63
2023-01-19T10:37:54.811Z,42.25
2023-01-19T10:40:28.370Z,42.67
2023-01-19T10:42:56.418Z,42.26
2023-01-19T10:45:25.726Z,43.30
2023-01-19T10:47:54.138Z,43.18
2023-01-19T10:50:28.441Z,43.11
2023-01-19T10:52:57.413Z,43.33
2023-01-19T10:55:27.225Z,42.85
2023-01-19T10:57:55.212Z,44.03
2023-01-19T11:00:37.848Z,44.33
2023-01-19T11:03:06.557Z,44.11
2023-01-19T11:05:36.425Z,44.36
2023-01-19T11:08:13.613Z,45.08
2023-01-19T11:10:41.595Z,44.34
2023-01-19T11:13:12.755Z,44.28
2023-01-19T11:15:43.107Z,43.92
2023-01-19T11:18:24.070Z,44.04
2023-01-19T11:20:53.799Z,44.43
2023-01-19T11:23:26.242Z,43.52
2023-01-19T11:25:54.474Z,43.58
2023-01-19T11:28:25.835Z,42.78
2023-01-19T11:30:58.496Z,43.53
2023-01-19T11:33:27.398Z,42.72
2023-01-19T11:36:05.858Z,42.42
2023-01-19T11:38:33.796Z,42.28
2023-01-19T11:41:04.281Z,42.33
2023-01-19T11:43:48.322Z,43.66
2023-01-19T11:46:17.225Z,43.64
2023-01-19T11:48:48.469Z,43.61
2023-01-19T11:51:18.697Z,43.77
2023-01-19T11:53:49.638Z,45.11
2023-01-19T11:56:17.627Z,45.39
2023-01-19T11:58:46.905Z,45.48
2023-01-19T12:01:21.116Z,46.35
2023-01-19T12:03:54.713Z,46.96
2023-01-19T12:06:26.810Z,46.95
2023-01-19T12:08:56.071Z,47.86
2023-01-19T12:11:26.442Z,47.82
2023-01-19T12:13:54.456Z,48.85
2023-01-19T12:16:23.122Z,49.78
2023-01-19T12:18:53.429Z,50.12
2023-01-19T12:21:21.419Z,49.53
2023-01-19T12:23:54.888Z,51.15
2023-01-19T12:26:35.168Z,51.06
2023-01-19T12:29:07.017Z,51.58
2023-01-19T12:31:35.239Z,51.77
2023-01-19T12:34:36.140Z,50.97
2023-01-19T12:37:04.959Z,51.59
2023-01-19T12:39:35.439Z,51.66
2023-01-19T12:42:08.870Z,51.14
2023-01-19T12:44:36.814Z,50.62
2023-01-19T12:47:20.312Z,51.44
2023-01-19T12:49:49.006Z,51.53
2023-01-19T12:52:26.783Z,51.41
2023-01-19T12:54:59.161Z,51.71
2023-01-19T12:57:29.083Z,51.44
2023-01-19T12:59:58.352Z,50.90
2023-01-19T13:02:42.025Z,51.17
2023-01-19T13:05:18.241Z,52.18
2023-01-19T13:08:14.967Z,52.21
2023-01-19T13:11:26.035Z,52.35
2023-01-19T13:14:36.508Z,52.32
2023-01-19T13:17:27.046Z,51.66
2023-01-19T13:20:33.560Z,51.88
2023-01-19T13:23:25.155Z,53.36
2023-01-19T13:26:00.063Z,52.87
2023-01-19T13:28:32.371Z,52.75
2023-01-19T13:31:02.651Z,53.59
2023-01-19T13:33:36.247Z,53.53
2023-01-19T13:36:04.336Z,54.26
2023-01-19T13:38:33.226Z,54.43
2023-01-19T13:41:02.573Z,54.94
2023-01-19T13:43:32.808Z,55.01
2023-01-19T13:46:00.845Z,54.71
2023-01-19T13:48:28.892Z,55.79
2023-01-19T13:51:02.041Z,56.28
2023-01-19T13:53:30.626Z,56.54
2023-01-19T13:56:20.791Z,56.17
2023-01-19T13:59:09.987Z,56.20
2023-01-19T14:01:39.282Z,57.14
2023-01-19T14:04:07.596Z,57.21
2023-01-19T14:06:38.742Z,57.42
2023-01-19T14:09:11.697Z,57.76
2023-01-19T14:11:41.065Z,59.08
2023-01-19T14:14:23.586Z,58.93
2023-01-19T14:16:51.586Z,59.44
2023-01-19T14:19:19.553Z,59.69
2023-01-19T14:21:47.487Z,59.99
2023-01-19T14:24:18.724Z,60.87
2023-01-19T14:26:49.220Z,60.68
2023-01-19T14:29:19.398Z,61.04
2023-01-19T14:31:48.444Z,61.18
2023-01-19T15:02:45.815Z,69.75
2023-01-19T15:05:14.014Z,69.61
2023-01-19T15:07:43.192Z,69.85
2023-01-19T15:10:14.284Z,70.05
2023-01-19T15:12:42.271Z,69.78
2023-01-19T15:15:15.288Z,70.00
2023-01-19T15:17:43.281Z,69.55
2023-01-19T15:20:16.051Z,70.37
2023-01-19T15:22:44.370Z,70.97
2023-01-19T15:25:14.592Z,72.30
2023-01-19T15:27:42.787Z,72.13
2023-01-19T15:30:20.932Z,73.37
2023-01-19T15:32:48.932Z,72.94
2023-01-19T15:35:22.439Z,74.55
2023-01-19T15:37:50.648Z,74.20
2023-01-19T15:40:19.223Z,74.72
2023-01-19T15:42:47.216Z,74.99
2023-01-19T15:45:34.517Z,75.36
2023-01-19T15:48:03.948Z,76.10
2023-01-19T15:50:33.353Z,77.31
2023-01-19T15:53:01.318Z,76.86
2023-01-19T15:55:29.405Z,77.82
2023-01-19T15:58:01.856Z,78.41
2023-01-19T16:00:30.420Z,79.42
2023-01-19T16:02:58.761Z,79.23
2023-01-19T16:05:37.666Z,79.78
2023-01-19T16:08:11.847Z,80.39
2023-01-19T16:10:39.948Z,80.82
2023-01-19T16:13:07.927Z,81.16
2023-01-19T16:15:35.931Z,80.62
2023-01-19T16:18:04.032Z,81.06
2023-01-19T16:20:32.002Z,82.06
2023-01-19T16:23:13.540Z,81.94
2023-01-19T16:25:44.289Z,82.18
2023-01-19T16:28:12.257Z,83.17
2023-01-19T16:30:40.292Z,83.12
2023-01-19T16:33:08.517Z,83.07
2023-01-19T16:35:36.493Z,83.14
2023-01-19T16:38:04.431Z,82.34
2023-01-19T16:40:32.359Z,81.05
2023-01-19T16:43:01.694Z,81.78
2023-01-19T16:45:29.612Z,81.50
2023-01-19T16:47:57.545Z,81.23
2023-01-19T16:50:25.524Z,81.68
2023-01-19T16:52:57.288Z,81.69
2023-01-19T16:55:25.200Z,82.77
2023-01-19T16:57:53.612Z,82.89
2023-01-19T17:00:23.198Z,82.95
2023-01-19T17:02:51.124Z,83.79
2023-01-19T17:05:19.081Z,82.59
2023-01-19T17:07:47.028Z,82.98
2023-01-19T17:10:14.952Z,83.74
2023-01-19T17:12:42.927Z,84.25
2023-01-19T17:15:11.576Z,84.93
2023-01-19T17:17:40.880Z,86.09
2023-01-19T17:20:10.602Z,85.92
2023-01-19T17:22:38.785Z,86.42
2023-01-19T17:25:07.743Z,86.65
2023-01-19T17:27:36.693Z,86.78
2023-01-19T17:30:04.845Z,86.65
2023-01-19T17:32:32.853Z,86.53
2023-01-19T17:35:02.222Z,86.14
2023-01-19T17:37:30.191Z,87.81
2023-01-19T17:39:58.123Z,87.24
2023-01-19T17:42:26.077Z,87.24
2023-01-19T17:44:54.026Z,88.08
2023-01-19T17:47:25.473Z,87.10
2023-01-19T17:49:53.484Z,87.61
2023-01-19T17:52:22.922Z,87.56
2023-01-19T17:54:50.930Z,86.40
2023-01-19T17:57:18.863Z,86.71
2023-01-19T17:59:47.319Z,87.14
2023-01-19T18:02:15.400Z,85.97
2023-01-19T18:04:43.593Z,85.79
2023-01-19T18:07:11.545Z,86.11
2023-01-19T18:09:40.862Z,86.07
2023-01-19T18:12:09.043Z,88.40
2023-01-19T18:14:37.040Z,88.93
2023-01-19T18:17:05.048Z,89.23
2023-01-19T18:19:33.027Z,90.32
2023-01-19T18:22:00.965Z,89.61
2023-01-19T18:24:29.361Z,89.82
2023-01-19T18:26:58.725Z,90.63
2023-01-19T18:29:26.746Z,90.51
2023-01-19T18:31:54.744Z,89.53
2023-01-19T18:34:22.854Z,89.04
2023-01-19T18:36:50.830Z,88.64
2023-01-19T18:39:18.795Z,88.49
2023-01-19T18:41:46.771Z,88.54
2023-01-19T18:44:16.154Z,88.04
2023-01-19T18:46:44.132Z,88.31
2023-01-19T18:49:12.137Z,88.69
2023-01-19T18:51:41.582Z,89.84
2023-01-19T18:54:09.636Z,89.68
2023-01-19T18:56:37.576Z,89.85
2023-01-19T18:59:05.535Z,89.46
2023-01-19T19:01:36.119Z,89.41
2023-01-19T19:04:04.204Z,89.03
2023-01-19T19:06:32.192Z,89.70
2023-01-19T19:09:00.329Z,88.97
2023-01-19T19:11:28.282Z,89.02
2023-01-19T19:13:57.262Z,88.65
2023-01-19T19:16:25.313Z,87.93
2023-01-19T19:18:54.615Z,87.75
2023-01-19T19:21:24.016Z,87.15
2023-01-19T19:23:52.387Z,87.23
2023-01-19T19:26:20.349Z,86.75
2023-01-19T19:28:48.494Z,86.85
2023-01-19T19:31:18.153Z,86.99
2023-01-19T19:33:46.143Z,86.88
2023-01-19T19:36:15.515Z,86.42
2023-01-19T19:38:44.527Z,85.88
2023-01-19T19:41:14.797Z,84.94
2023-01-19T19:43:43.182Z,84.99
2023-01-19T19:46:12.022Z,85.69
2023-01-19T19:48:40.008Z,86.16
2023-01-19T19:51:17.604Z,86.83
2023-01-19T19:53:51.158Z,86.60
2023-01-19T19:56:21.201Z,87.22
2023-01-19T19:58:49.432Z,87.75
2023-01-19T20:01:18.508Z,87.56
2023-01-19T20:03:46.508Z,88.30
2023-01-19T20:06:15.639Z,89.24
2023-01-19T20:08:43.588Z,89.13
2023-01-19T20:11:14.204Z,90.10
2023-01-19T20:13:42.902Z,90.69
2023-01-19T20:16:12.534Z,91.15
2023-01-19T20:18:40.770Z,91.85
2023-01-19T20:21:12.436Z,92.03
2023-01-19T20:23:40.489Z,92.95
2023-01-19T20:26:09.115Z,93.38
2023-01-19T20:28:38.431Z,93.90
2023-01-19T20:31:11.199Z,94.96
2023-01-19T20:33:39.143Z,96.20
2023-01-19T20:36:07.314Z,97.46
2023-01-19T20:38:35.292Z,96.78
2023-01-19T20:41:03.297Z,96.57
2023-01-19T20:43:31.546Z,97.95
2023-01-19T20:46:00.851Z,98.07
2023-01-19T20:48:28.942Z,98.86
2023-01-19T20:50:59.362Z,99.83
2023-01-19T20:53:27.371Z,100.00
2023-01-19T20:55:55.295Z,100.00
2023-01-19T20:58:23.491Z,100.00
2023-01-19T21:00:51.520Z,100.00
2023-01-19T21:03:20.846Z,100.00
2023-01-19T21:05:49.136Z,100.00
2023-01-19T21:08:18.229Z,100.00
2023-01-19T21:10:46.151Z,100.00
2023-01-19T21:13:14.300Z,100.00
2023-01-19T21:15:42.227Z,100.00
2023-01-19T21:18:10.195Z,100.00
2023-01-19T21:20:39.482Z,100.00
2023-01-19T21:23:07.441Z,100.00
2023-01-19T21:25:37.218Z,100.00
2023-01-19T21:28:05.209Z,100.00
2023-01-19T21:30:33.257Z,100.00
2023-01-19T21:33:02.288Z,100.00
2023-01-19T21:35:30.230Z,100.00
2023-01-19T21:37:59.559Z,100.00
2023-01-19T21:40:27.591Z,100.00
2023-01-19T21:42:55.554Z,100.00
2023-01-19T21:45:23.863Z,100.00
2023-01-19T21:47:51.832Z,100.00
2023-01-19T21:50:20.111Z,100.00
2023-01-19T21:52:48.043Z,100.00
2023-01-19T21:55:17.929Z,100.00
2023-01-19T21:57:45.899Z,100.00
2023-01-19T22:00:14.164Z,100.00
2023-01-19T22:02:45.112Z,100.00
2023-01-19T22:05:17.426Z,100.00
2023-01-19T22:07:45.377Z,100.00
2023-01-19T22:10:13.439Z,100.00
2023-01-19T22:12:42.773Z,100.00
2023-01-19T22:15:11.611Z,100.00
2023-01-19T22:17:39.745Z,100.00
2023-01-19T22:20:09.327Z,100.00
2023-01-19T22:22:37.311Z,100.00
2023-01-19T22:25:06.060Z,100.00
2023-01-19T22:27:34.061Z,100.00
2023-01-19T22:30:03.445Z,100.00
2023-01-19T22:32:31.401Z,100.00
2023-01-19T22:34:59.378Z,100.00
2023-01-19T22:37:27.348Z,100.00
2023-01-19T22:39:55.308Z,100.00
2023-01-19T22:42:23.225Z,100.00
2023-01-19T22:44:51.189Z,100.00
2023-01-19T22:47:20.633Z,100.00
2023-01-19T22:49:48.580Z,100.00
2023-01-19T22:52:16.547Z,100.00
2023-01-19T22:54:44.457Z,100.00
2023-01-19T22:57:12.438Z,100.00
2023-01-19T22:59:40.364Z,100.00
2023-01-19T23:02:09.262Z,100.00
2023-01-19T23:04:39.550Z,100.00
2023-01-19T23:07:09.300Z,100.00
2023-01-19T23:09:38.501Z,100.00
2023-01-19T23:12:06.622Z,100.00
2023-01-19T23:14:34.743Z,100.00
2023-01-19T23:17:02.831Z,100.00
2023-01-19T23:19:30.778Z,100.00
2023-01-19T23:22:00.102Z,100.00
2023-01-19T23:24:28.078Z,100.00
2023-01-19T23:26:56.015Z,100.00
2023-01-19T23:29:23.973Z,100.00
2023-01-19T23:31:53.451Z,100.00
2023-01-19T23:34:21.454Z,100.00
2023-01-19T23:36:49.408Z,100.00
2023-01-19T23:39:19.592Z,100.00
2023-01-19T23:41:47.706Z,100.00
2023-01-19T23:44:15.715Z,100.00
2023-01-19T23:46:44.371Z,100.00
2023-01-19T23:49:12.450Z,100.00
2023-01-19T23:51:40.714Z,100.00
2023-01-19T23:54:08.757Z,100.00
2023-01-19T23:56:38.419Z,100.00
2023-01-19T23:59:07.243Z,100.00
